Time;durP1;ratioP1;P1;durP2;ratioP2;P2;SDS_P1;SDS_P2;PMS_P1;PMS_P2;Temp;Humidity;BMP_temperature;BMP_pressure;BME280_temperature;BME280_humidity;BME280_pressure;Samples;Min_cycle;Max_cycle;Signal;HPM_P1;HPM_P2
2021/01/12 00:00:31;;;;;;;;;30.75;30.25;;;;;;;;5043821;28;12252;-77
2021/01/12 00:03:00;;;;;;;;;33.50;28.75;;;;;;;;5031809;28;11603;-77
2021/01/12 00:05:27;;;;;;;;;31.25;30.00;;;;;;;;5047565;28;11643;-86
2021/01/12 00:07:54;;;;;;;;;32.50;28.50;;;;;;;;5037708;28;11586;-78
2021/01/12 00:10:22;;;;;;;;;27.25;25.25;;;;;;;;5046312;28;11589;-79
2021/01/12 00:12:49;;;;;;;;;27.00;22.50;;;;;;;;5033929;28;11612;-78
2021/01/12 00:15:16;;;;;;;;;39.00;30.00;;;;;;;;5042936;28;11589;-82
2021/01/12 00:17:43;;;;;;;;;30.75;30.75;;;;;;;;5041630;28;11062;-85
2021/01/12 00:20:13;;;;;;;;;26.00;23.75;;;;;;;;5034195;28;11614;-79
2021/01/12 00:22:40;;;;;;;;;36.75;25.75;;;;;;;;5041539;28;11598;-86
2021/01/12 00:25:08;;;;;;;;;24.50;23.75;;;;;;;;5036436;28;11593;-83
2021/01/12 00:27:35;;;;;;;;;25.00;25.00;;;;;;;;5029600;28;11596;-76
2021/01/12 00:30:02;;;;;;;;;27.50;25.25;;;;;;;;5038056;28;11614;-84
2021/01/12 00:32:30;;;;;;;;;28.50;28.25;;;;;;;;5036759;28;12318;-76
2021/01/12 00:34:57;;;;;;;;;26.25;26.00;;;;;;;;5035749;28;11600;-79
2021/01/12 00:37:26;;;;;;;;;23.75;23.75;;;;;;;;5032538;28;11588;-88
2021/01/12 00:39:54;;;;;;;;;27.00;23.50;;;;;;;;5040682;28;11614;-75
2021/01/12 00:42:21;;;;;;;;;32.50;25.25;;;;;;;;5038685;28;11623;-75
2021/01/12 00:44:48;;;;;;;;;27.00;24.25;;;;;;;;5036369;28;12384;-82
2021/01/12 00:47:15;;;;;;;;;25.75;25.75;;;;;;;;5036966;28;11585;-77
2021/01/12 00:49:42;;;;;;;;;29.75;28.00;;;;;;;;5028994;28;11596;-76
2021/01/12 00:52:10;;;;;;;;;29.00;27.25;;;;;;;;5038426;28;12332;-83
2021/01/12 00:54:38;;;;;;;;;31.00;26.50;;;;;;;;5027905;28;11620;-80
2021/01/12 00:57:05;;;;;;;;;21.50;21.50;;;;;;;;5044322;28;11608;-88
2021/01/12 00:59:32;;;;;;;;;24.00;24.00;;;;;;;;5040490;28;11642;-76
2021/01/12 01:02:00;;;;;;;;;18.25;18.25;;;;;;;;5038026;28;11555;-87
2021/01/12 01:04:27;;;;;;;;;31.00;25.25;;;;;;;;5038309;28;11588;-75
2021/01/12 01:06:54;;;;;;;;;30.25;29.00;;;;;;;;5040160;28;11737;-82
2021/01/12 01:09:21;;;;;;;;;28.00;25.25;;;;;;;;5034631;28;12414;-80
2021/01/12 01:11:50;;;;;;;;;27.50;23.75;;;;;;;;5043030;28;11749;-82
2021/01/12 01:14:18;;;;;;;;;23.75;21.25;;;;;;;;5041297;28;11562;-81
2021/01/12 01:16:45;;;;;;;;;19.00;19.00;;;;;;;;5034810;28;11643;-81
2021/01/12 01:19:13;;;;;;;;;29.50;26.00;;;;;;;;5028732;28;11632;-77
2021/01/12 01:21:40;;;;;;;;;22.00;21.25;;;;;;;;5032006;28;11588;-91
2021/01/12 01:24:08;;;;;;;;;33.75;27.25;;;;;;;;5038317;28;12364;-88
2021/01/12 01:26:35;;;;;;;;;23.50;23.50;;;;;;;;5031048;28;11765;-79
2021/01/12 01:29:03;;;;;;;;;25.00;24.00;;;;;;;;5034544;28;11636;-87
2021/01/12 01:31:35;;;;;;;;;23.50;21.25;;;;;;;;5033941;28;11547;-75
2021/01/12 01:34:02;;;;;;;;;18.25;18.25;;;;;;;;5033100;28;12540;-77
2021/01/12 01:36:29;;;;;;;;;33.75;26.25;;;;;;;;5039826;28;11578;-83
2021/01/12 01:38:56;;;;;;;;;26.00;26.00;;;;;;;;5031984;28;11680;-80
2021/01/12 01:41:22;;;;;;;;;17.50;17.50;;;;;;;;5033001;28;11644;-80
2021/01/12 01:43:49;;;;;;;;;27.75;27.50;;;;;;;;5038391;28;11612;-78
2021/01/12 01:46:17;;;;;;;;;26.00;24.75;;;;;;;;5030796;28;11605;-81
2021/01/12 01:48:44;;;;;;;;;26.25;24.00;;;;;;;;5035212;28;11608;-75
2021/01/12 01:51:11;;;;;;;;;22.25;19.75;;;;;;;;5036667;28;11602;-77
2021/01/12 01:53:38;;;;;;;;;25.25;23.00;;;;;;;;5032744;28;11592;-75
2021/01/12 01:56:06;;;;;;;;;24.75;21.75;;;;;;;;5033837;28;11583;-81
2021/01/12 01:58:38;;;;;;;;;26.00;23.50;;;;;;;;5036148;28;11596;-76
2021/01/12 02:01:05;;;;;;;;;27.75;23.75;;;;;;;;5031784;28;11553;-77
2021/01/12 02:03:39;;;;;;;;;24.75;23.00;;;;;;;;5035339;28;11653;-81
2021/01/12 02:06:12;;;;;;;;;21.25;19.75;;;;;;;;5035068;28;11634;-76
2021/01/12 02:08:45;;;;;;;;;24.75;23.25;;;;;;;;5036929;28;11578;-79
2021/01/12 02:11:16;;;;;;;;;29.25;28.00;;;;;;;;5039146;28;11597;-77
2021/01/12 02:13:43;;;;;;;;;22.00;20.75;;;;;;;;5033553;28;11609;-84
2021/01/12 02:16:10;;;;;;;;;27.00;24.50;;;;;;;;5039297;28;11626;-84
2021/01/12 02:18:38;;;;;;;;;23.75;21.00;;;;;;;;5032607;28;11700;-75
2021/01/12 02:21:06;;;;;;;;;22.25;22.25;;;;;;;;5032353;28;11583;-77
2021/01/12 02:23:49;;;;;;;;;29.50;26.75;;;;;;;;5036052;28;11606;-74
2021/01/12 02:26:16;;;;;;;;;24.25;21.25;;;;;;;;5038206;28;11614;-75
2021/01/12 02:28:42;;;;;;;;;32.25;25.75;;;;;;;;5034685;28;11596;-74
2021/01/12 02:31:10;;;;;;;;;24.75;19.50;;;;;;;;5040016;28;11528;-78
2021/01/12 02:33:38;;;;;;;;;25.75;23.50;;;;;;;;5034046;28;11572;-75
2021/01/12 02:36:08;;;;;;;;;23.00;21.00;;;;;;;;5033569;28;12384;-77
2021/01/12 02:38:36;;;;;;;;;24.25;22.00;;;;;;;;5025811;28;11615;-77
2021/01/12 02:41:14;;;;;;;;;15.50;15.50;;;;;;;;5028697;28;11591;-80
2021/01/12 02:43:43;;;;;;;;;23.00;20.00;;;;;;;;5042309;28;11555;-77
2021/01/12 02:46:10;;;;;;;;;20.50;20.00;;;;;;;;5035700;28;11607;-83
2021/01/12 02:48:37;;;;;;;;;24.00;21.75;;;;;;;;5037520;28;11588;-76
2021/01/12 02:51:04;;;;;;;;;20.75;19.25;;;;;;;;5041072;28;11612;-81
2021/01/12 02:53:31;;;;;;;;;20.25;18.75;;;;;;;;5040355;28;11565;-79
2021/01/12 02:55:58;;;;;;;;;22.25;17.75;;;;;;;;5041081;28;11710;-76
2021/01/12 02:58:26;;;;;;;;;15.25;13.75;;;;;;;;5031082;28;11590;-77
2021/01/12 03:00:53;;;;;;;;;24.00;20.75;;;;;;;;5025049;28;11556;-77
2021/01/12 03:03:20;;;;;;;;;23.25;20.25;;;;;;;;5016391;28;11593;-83
2021/01/12 03:05:47;;;;;;;;;20.00;16.00;;;;;;;;5014786;28;11606;-75
2021/01/12 03:08:14;;;;;;;;;18.00;15.75;;;;;;;;5016953;28;11623;-77
2021/01/12 03:10:41;;;;;;;;;20.25;17.00;;;;;;;;5015706;28;11612;-81
2021/01/12 03:13:09;;;;;;;;;18.00;18.00;;;;;;;;5018759;28;11590;-82
2021/01/12 03:15:37;;;;;;;;;16.75;16.75;;;;;;;;5016219;28;11624;-80
2021/01/12 03:18:05;;;;;;;;;18.00;16.75;;;;;;;;5010605;28;12367;-78
2021/01/12 03:20:32;;;;;;;;;20.00;18.75;;;;;;;;5017240;28;11599;-78
2021/01/12 03:23:00;;;;;;;;;16.75;16.75;;;;;;;;5021034;28;11601;-82
2021/01/12 03:25:27;;;;;;;;;22.00;18.75;;;;;;;;5014410;28;11610;-78
2021/01/12 03:27:54;;;;;;;;;25.25;20.00;;;;;;;;5018494;28;11595;-79
2021/01/12 03:30:22;;;;;;;;;20.50;18.25;;;;;;;;5013232;28;11640;-78
2021/01/12 03:32:51;;;;;;;;;21.00;18.50;;;;;;;;5014192;28;11597;-80
2021/01/12 03:35:18;;;;;;;;;13.25;10.50;;;;;;;;5014271;28;11604;-77
2021/01/12 03:37:45;;;;;;;;;17.75;17.75;;;;;;;;5027118;28;11542;-80
2021/01/12 03:40:13;;;;;;;;;15.50;15.50;;;;;;;;5020110;28;11670;-85
2021/01/12 03:42:40;;;;;;;;;16.50;16.50;;;;;;;;5013955;28;11604;-84
2021/01/12 03:45:08;;;;;;;;;16.00;13.50;;;;;;;;5021194;28;11695;-87
2021/01/12 03:47:35;;;;;;;;;21.50;21.00;;;;;;;;5028001;28;11581;-79
2021/01/12 03:50:04;;;;;;;;;16.50;16.50;;;;;;;;5009929;28;11568;-77
2021/01/12 03:52:31;;;;;;;;;13.00;12.50;;;;;;;;5015556;28;11665;-76
2021/01/12 03:54:58;;;;;;;;;16.75;16.25;;;;;;;;5023981;28;11537;-77
2021/01/12 03:57:25;;;;;;;;;17.75;17.75;;;;;;;;5017829;28;11609;-76
2021/01/12 03:59:51;;;;;;;;;15.50;13.00;;;;;;;;5023435;28;11591;-78
2021/01/12 04:02:18;;;;;;;;;22.25;17.00;;;;;;;;5022673;28;11543;-76
2021/01/12 04:04:45;;;;;;;;;17.00;15.50;;;;;;;;5020656;28;11712;-76
2021/01/12 04:07:13;;;;;;;;;15.75;13.50;;;;;;;;5017053;28;11589;-79
2021/01/12 04:09:40;;;;;;;;;20.00;17.00;;;;;;;;5007323;28;11550;-76
2021/01/12 04:12:08;;;;;;;;;13.50;13.50;;;;;;;;5020650;28;11579;-77
2021/01/12 04:14:34;;;;;;;;;14.00;14.00;;;;;;;;5018924;28;11661;-80
2021/01/12 04:17:01;;;;;;;;;15.00;12.25;;;;;;;;5025546;28;11620;-85
2021/01/12 04:19:28;;;;;;;;;18.50;14.25;;;;;;;;5015332;28;11608;-79
2021/01/12 04:21:58;;;;;;;;;16.75;11.50;;;;;;;;5024677;28;11608;-77
2021/01/12 04:24:26;;;;;;;;;17.75;16.00;;;;;;;;5023696;28;11575;-75
2021/01/12 04:26:53;;;;;;;;;19.25;17.00;;;;;;;;5017156;28;11686;-79
2021/01/12 04:29:19;;;;;;;;;13.75;13.75;;;;;;;;5015197;28;11560;-77
2021/01/12 04:31:46;;;;;;;;;17.25;17.25;;;;;;;;5009733;28;11549;-87
2021/01/12 04:34:13;;;;;;;;;17.50;13.75;;;;;;;;5025793;28;12358;-76
2021/01/12 04:36:40;;;;;;;;;13.00;13.00;;;;;;;;5016432;28;11602;-80
2021/01/12 04:39:07;;;;;;;;;14.00;13.00;;;;;;;;5018430;28;11628;-83
2021/01/12 04:41:35;;;;;;;;;15.25;13.50;;;;;;;;5011802;28;11584;-77
2021/01/12 04:44:02;;;;;;;;;12.50;12.50;;;;;;;;5022938;28;11633;-76
2021/01/12 04:46:29;;;;;;;;;17.50;17.50;;;;;;;;5018005;28;11584;-78
2021/01/12 04:48:56;;;;;;;;;20.75;20.75;;;;;;;;5012449;28;11594;-78
2021/01/12 04:51:25;;;;;;;;;20.00;13.25;;;;;;;;5024083;28;11574;-83
2021/01/12 04:53:52;;;;;;;;;17.00;16.50;;;;;;;;5016101;28;11570;-76
2021/01/12 04:56:20;;;;;;;;;12.00;12.00;;;;;;;;5014232;28;11667;-85
2021/01/12 04:58:49;;;;;;;;;10.50;10.50;;;;;;;;5018926;28;11602;-84
2021/01/12 05:01:18;;;;;;;;;13.00;10.50;;;;;;;;5015752;28;11514;-77
2021/01/12 05:03:46;;;;;;;;;13.25;13.25;;;;;;;;5022261;28;11596;-81
2021/01/12 05:06:14;;;;;;;;;12.50;12.00;;;;;;;;5018623;28;11569;-79
2021/01/12 05:08:44;;;;;;;;;14.00;12.50;;;;;;;;5020748;28;11572;-76
2021/01/12 05:11:12;;;;;;;;;12.50;12.25;;;;;;;;5010628;28;11587;-78
2021/01/12 05:13:43;;;;;;;;;10.50;9.00;;;;;;;;5023979;28;11679;-76
2021/01/12 05:16:13;;;;;;;;;16.50;13.25;;;;;;;;5016216;28;11553;-79
2021/01/12 05:18:41;;;;;;;;;12.75;9.50;;;;;;;;5019595;28;11572;-75
2021/01/12 05:21:11;;;;;;;;;15.50;13.25;;;;;;;;5021018;28;11559;-75
2021/01/12 05:24:02;;;;;;;;;11.00;8.75;;;;;;;;5024419;28;11620;-81
2021/01/12 05:26:33;;;;;;;;;14.00;12.50;;;;;;;;5026005;28;11574;-91
2021/01/12 05:29:00;;;;;;;;;11.00;8.50;;;;;;;;5024942;28;11571;-77
2021/01/12 05:31:29;;;;;;;;;13.00;13.00;;;;;;;;5018055;28;12488;-80
2021/01/12 05:33:56;;;;;;;;;15.50;12.00;;;;;;;;5020116;28;11571;-74
2021/01/12 05:36:23;;;;;;;;;13.00;11.00;;;;;;;;5026133;28;11627;-79
2021/01/12 05:38:52;;;;;;;;;17.00;13.00;;;;;;;;5023460;28;11713;-77
2021/01/12 05:41:18;;;;;;;;;12.50;12.50;;;;;;;;5020597;28;12373;-84
2021/01/12 05:43:46;;;;;;;;;14.25;10.50;;;;;;;;5012586;28;11566;-78
2021/01/12 05:46:15;;;;;;;;;14.75;10.75;;;;;;;;5024767;28;11551;-75
2021/01/12 05:48:44;;;;;;;;;10.00;10.00;;;;;;;;5025276;28;11687;-78
2021/01/12 05:51:13;;;;;;;;;8.75;8.75;;;;;;;;5024064;28;11549;-76
2021/01/12 05:54:05;;;;;;;;;16.00;8.75;;;;;;;;5020216;28;11614;-76
2021/01/12 05:56:32;;;;;;;;;14.00;12.50;;;;;;;;5021099;28;11573;-75
2021/01/12 05:59:01;;;;;;;;;9.00;9.00;;;;;;;;5021811;28;11567;-81
2021/01/12 06:01:46;;;;;;;;;16.25;8.50;;;;;;;;5017505;28;11667;-79
2021/01/12 06:04:15;;;;;;;;;11.25;9.50;;;;;;;;5019279;28;11559;-75
2021/01/12 06:06:43;;;;;;;;;10.25;9.75;;;;;;;;5022755;28;11542;-80
2021/01/12 06:09:13;;;;;;;;;8.25;5.50;;;;;;;;5013999;28;12356;-76
2021/01/12 06:11:41;;;;;;;;;11.00;8.75;;;;;;;;5016377;28;11558;-81
2021/01/12 06:14:10;;;;;;;;;8.75;8.75;;;;;;;;5016037;28;11459;-76
2021/01/12 06:16:38;;;;;;;;;8.75;7.25;;;;;;;;5015900;28;11550;-81
2021/01/12 06:19:11;;;;;;;;;5.75;5.50;;;;;;;;5017511;28;11568;-79
2021/01/12 06:22:10;;;;;;;;;8.25;6.50;;;;;;;;5021698;28;11499;-78
2021/01/12 06:24:50;;;;;;;;;5.00;5.00;;;;;;;;5020074;28;11484;-76
2021/01/12 06:27:19;;;;;;;;;13.00;11.25;;;;;;;;5016946;28;11483;-80
2021/01/12 06:29:47;;;;;;;;;6.75;6.75;;;;;;;;5020733;28;11527;-84
2021/01/12 06:32:16;;;;;;;;;10.75;8.50;;;;;;;;5014501;28;11438;-80
2021/01/12 06:34:43;;;;;;;;;5.00;5.00;;;;;;;;5021970;28;12284;-76
2021/01/12 06:37:13;;;;;;;;;4.00;4.00;;;;;;;;5009526;28;11529;-77
2021/01/12 06:39:42;;;;;;;;;8.00;5.50;;;;;;;;5024362;28;11484;-80
2021/01/12 06:42:10;;;;;;;;;7.00;6.00;;;;;;;;5015718;28;12421;-81
2021/01/12 06:44:38;;;;;;;;;5.75;4.00;;;;;;;;5017300;28;11485;-78
2021/01/12 06:47:07;;;;;;;;;5.00;5.00;;;;;;;;5015604;28;11484;-80
2021/01/12 06:49:34;;;;;;;;;4.75;4.75;;;;;;;;5020932;28;11598;-78
2021/01/12 06:52:03;;;;;;;;;3.25;3.25;;;;;;;;5011799;28;11469;-81
2021/01/12 06:54:36;;;;;;;;;2.00;2.00;;;;;;;;5017400;28;11520;-79
2021/01/12 06:57:05;;;;;;;;;3.25;3.25;;;;;;;;5018297;28;12302;-77
2021/01/12 06:59:36;;;;;;;;;3.75;3.25;;;;;;;;5015617;28;11496;-74
2021/01/12 07:02:08;;;;;;;;;2.00;2.00;;;;;;;;5017456;28;11420;-74
2021/01/12 07:04:34;;;;;;;;;3.00;3.00;;;;;;;;5010458;28;11508;-72
2021/01/12 07:07:02;;;;;;;;;2.00;2.00;;;;;;;;5011434;28;12575;-73
2021/01/12 07:09:30;;;;;;;;;1.00;1.00;;;;;;;;5008678;28;12313;-72
2021/01/12 07:12:08;;;;;;;;;1.25;1.25;;;;;;;;5015153;28;11446;-73
2021/01/12 07:14:45;;;;;;;;;1.25;1.25;;;;;;;;5007059;28;11657;-75
2021/01/12 07:17:13;;;;;;;;;3.25;1.50;;;;;;;;5007360;28;11585;-72
2021/01/12 07:19:40;;;;;;;;;0.25;0.25;;;;;;;;5014305;28;11478;-72
2021/01/12 07:22:19;;;;;;;;;0.00;0.00;;;;;;;;5017167;28;11244;-73
2021/01/12 07:24:46;;;;;;;;;1.00;1.00;;;;;;;;5018292;28;11162;-73
2021/01/12 07:27:16;;;;;;;;;1.00;1.00;;;;;;;;5018003;28;11219;-72
2021/01/12 07:29:48;;;;;;;;;0.75;0.00;;;;;;;;5010318;28;11268;-72
2021/01/12 07:32:28;;;;;;;;;0.00;0.00;;;;;;;;5017663;28;11077;-72
2021/01/12 07:34:57;;;;;;;;;1.00;1.00;;;;;;;;5013227;28;11176;-73
2021/01/12 07:37:29;;;;;;;;;1.00;0.25;;;;;;;;5011462;28;11242;-74
2021/01/12 07:39:57;;;;;;;;;0.00;0.00;;;;;;;;5012226;28;11817;-73
2021/01/12 07:42:25;;;;;;;;;2.50;1.00;;;;;;;;5019533;28;11936;-73
2021/01/12 07:44:52;;;;;;;;;0.00;0.00;;;;;;;;5023515;28;11149;-71
2021/01/12 07:47:19;;;;;;;;;0.00;0.00;;;;;;;;5012278;28;11190;-73
2021/01/12 07:49:48;;;;;;;;;0.25;0.25;;;;;;;;5020016;28;10987;-72
2021/01/12 07:52:16;;;;;;;;;0.00;0.00;;;;;;;;5016745;28;11060;-73
2021/01/12 07:54:42;;;;;;;;;0.00;0.00;;;;;;;;5014846;28;11114;-72
2021/01/12 07:57:10;;;;;;;;;0.00;0.00;;;;;;;;5010070;28;10980;-71
2021/01/12 07:59:40;;;;;;;;;0.00;0.00;;;;;;;;5016697;28;11078;-72
2021/01/12 08:02:07;;;;;;;;;0.00;0.00;;;;;;;;5018584;28;11646;-72
2021/01/12 08:04:34;;;;;;;;;0.00;0.00;;;;;;;;5016160;28;11062;-72
2021/01/12 08:07:01;;;;;;;;;0.00;0.00;;;;;;;;5012736;28;10994;-73
2021/01/12 08:09:28;;;;;;;;;0.00;0.00;;;;;;;;5008460;28;11091;-72
2021/01/12 08:12:03;;;;;;;;;0.25;0.25;;;;;;;;5022431;28;11100;-72
2021/01/12 08:14:30;;;;;;;;;0.00;0.00;;;;;;;;5021962;28;10984;-74
2021/01/12 08:17:03;;;;;;;;;0.00;0.00;;;;;;;;5017568;28;11010;-73
2021/01/12 08:19:30;;;;;;;;;0.00;0.00;;;;;;;;5018838;28;10885;-73
2021/01/12 08:21:57;;;;;;;;;0.00;0.00;;;;;;;;5015323;28;11027;-74
2021/01/12 08:24:25;;;;;;;;;0.00;0.00;;;;;;;;5014197;28;10804;-73
2021/01/12 08:26:53;;;;;;;;;0.00;0.00;;;;;;;;5009226;28;10981;-73
2021/01/12 08:29:28;;;;;;;;;0.00;0.00;;;;;;;;5010421;28;10898;-73
2021/01/12 08:32:02;;;;;;;;;0.00;0.00;;;;;;;;5025460;28;10794;-73
2021/01/12 08:34:33;;;;;;;;;0.00;0.00;;;;;;;;5015923;28;10915;-72
2021/01/12 08:37:03;;;;;;;;;0.00;0.00;;;;;;;;5023465;28;11554;-72
2021/01/12 08:39:31;;;;;;;;;0.00;0.00;;;;;;;;5022987;28;10698;-73
2021/01/12 08:41:59;;;;;;;;;0.00;0.00;;;;;;;;5019898;28;10905;-73
2021/01/12 08:44:27;;;;;;;;;1.75;0.00;;;;;;;;5016483;28;10858;-73
2021/01/12 08:46:54;;;;;;;;;0.00;0.00;;;;;;;;5022429;28;10860;-73
2021/01/12 08:49:31;;;;;;;;;0.00;0.00;;;;;;;;5021503;28;10832;-74
2021/01/12 08:51:59;;;;;;;;;0.00;0.00;;;;;;;;5013961;28;10824;-74
2021/01/12 08:54:26;;;;;;;;;0.25;0.00;;;;;;;;5026531;28;10955;-74
2021/01/12 08:56:57;;;;;;;;;0.00;0.00;;;;;;;;5022145;28;11447;-73
2021/01/12 08:59:29;;;;;;;;;0.00;0.00;;;;;;;;5019432;28;10859;-74
2021/01/12 09:01:57;;;;;;;;;0.00;0.00;;;;;;;;5020816;28;10761;-74
2021/01/12 09:04:27;;;;;;;;;0.00;0.00;;;;;;;;5022929;28;10775;-73
2021/01/12 09:07:02;;;;;;;;;0.00;0.00;;;;;;;;5017065;28;10893;-73
2021/01/12 09:09:29;;;;;;;;;0.00;0.00;;;;;;;;5023174;28;10840;-74
2021/01/12 09:11:59;;;;;;;;;0.00;0.00;;;;;;;;5024827;28;10842;-73
2021/01/12 09:14:30;;;;;;;;;2.00;0.00;;;;;;;;5018593;28;10971;-74
2021/01/12 09:16:59;;;;;;;;;0.00;0.00;;;;;;;;5017599;28;10845;-74
2021/01/12 09:19:35;;;;;;;;;0.00;0.00;;;;;;;;5023237;28;10842;-73
2021/01/12 09:22:10;;;;;;;;;0.00;0.00;;;;;;;;5020697;28;10903;-74
2021/01/12 09:24:40;;;;;;;;;0.00;0.00;;;;;;;;5014716;28;10681;-73
2021/01/12 09:27:07;;;;;;;;;0.00;0.00;;;;;;;;5025589;28;10755;-74
2021/01/12 09:29:39;;;;;;;;;0.00;0.00;;;;;;;;5013319;28;10846;-73
2021/01/12 09:32:07;;;;;;;;;1.50;1.00;;;;;;;;5012647;28;10634;-74
2021/01/12 09:34:34;;;;;;;;;0.00;0.00;;;;;;;;5019172;28;10800;-74
2021/01/12 09:37:01;;;;;;;;;0.00;0.00;;;;;;;;5014079;28;11623;-74
2021/01/12 09:39:28;;;;;;;;;0.00;0.00;;;;;;;;5014429;28;10838;-73
2021/01/12 09:41:55;;;;;;;;;0.00;0.00;;;;;;;;5023182;28;10772;-72
2021/01/12 09:44:22;;;;;;;;;3.00;0.00;;;;;;;;5017728;28;10683;-74
2021/01/12 09:46:49;;;;;;;;;0.00;0.00;;;;;;;;5022391;28;11559;-72
2021/01/12 09:49:16;;;;;;;;;0.00;0.00;;;;;;;;5017559;28;10772;-72
2021/01/12 09:51:43;;;;;;;;;0.00;0.00;;;;;;;;5024313;28;10703;-73
2021/01/12 09:54:10;;;;;;;;;0.00;0.00;;;;;;;;5012932;28;11608;-73
2021/01/12 09:56:38;;;;;;;;;0.00;0.00;;;;;;;;5012109;28;10843;-73
2021/01/12 09:59:05;;;;;;;;;0.00;0.00;;;;;;;;5024304;28;10681;-73
2021/01/12 10:01:31;;;;;;;;;0.00;0.00;;;;;;;;5011231;28;11368;-73
2021/01/12 10:03:58;;;;;;;;;0.00;0.00;;;;;;;;5017326;28;11404;-73
2021/01/12 10:06:27;;;;;;;;;0.00;0.00;;;;;;;;5023898;28;11559;-74
2021/01/12 10:08:54;;;;;;;;;0.00;0.00;;;;;;;;5024530;28;11481;-73
2021/01/12 10:11:23;;;;;;;;;0.00;0.00;;;;;;;;5023147;28;11490;-73
2021/01/12 10:13:50;;;;;;;;;0.00;0.00;;;;;;;;5024407;28;11199;-74
2021/01/12 10:16:21;;;;;;;;;0.00;0.00;;;;;;;;5024630;28;10768;-72
2021/01/12 10:18:48;;;;;;;;;0.00;0.00;;;;;;;;5014790;28;10733;-72
2021/01/12 10:21:17;;;;;;;;;0.00;0.00;;;;;;;;5016677;28;10596;-72
2021/01/12 10:23:44;;;;;;;;;0.00;0.00;;;;;;;;5022941;28;10580;-74
2021/01/12 10:26:14;;;;;;;;;0.00;0.00;;;;;;;;5017319;28;10464;-72
2021/01/12 10:28:41;;;;;;;;;0.00;0.00;;;;;;;;5007886;28;10395;-73
2021/01/12 10:31:13;;;;;;;;;0.00;0.00;;;;;;;;5010111;28;10404;-74
2021/01/12 10:33:41;;;;;;;;;0.00;0.00;;;;;;;;5016094;28;10467;-73
2021/01/12 10:36:08;;;;;;;;;0.00;0.00;;;;;;;;5022952;28;10454;-73
2021/01/12 10:38:35;;;;;;;;;0.50;0.00;;;;;;;;5019224;28;10392;-72
2021/01/12 10:41:02;;;;;;;;;0.00;0.00;;;;;;;;5022121;28;10393;-72
2021/01/12 10:43:29;;;;;;;;;0.00;0.00;;;;;;;;5023901;28;10559;-73
2021/01/12 10:45:55;;;;;;;;;0.00;0.00;;;;;;;;5022036;28;10476;-72
2021/01/12 10:48:23;;;;;;;;;0.00;0.00;;;;;;;;5018497;28;10486;-72
2021/01/12 10:50:50;;;;;;;;;0.00;0.00;;;;;;;;5015441;28;10540;-73
2021/01/12 10:53:17;;;;;;;;;0.00;0.00;;;;;;;;5021104;28;10387;-73
2021/01/12 10:55:44;;;;;;;;;0.00;0.00;;;;;;;;5024278;28;10478;-72
2021/01/12 10:58:11;;;;;;;;;0.75;0.00;;;;;;;;5022166;28;10479;-72
2021/01/12 11:00:38;;;;;;;;;0.00;0.00;;;;;;;;5023778;28;10378;-73
2021/01/12 11:03:06;;;;;;;;;0.00;0.00;;;;;;;;5011653;28;10494;-72
2021/01/12 11:05:34;;;;;;;;;0.00;0.00;;;;;;;;5006888;28;10388;-72
2021/01/12 11:08:01;;;;;;;;;0.00;0.00;;;;;;;;5020738;28;10488;-73
2021/01/12 11:10:29;;;;;;;;;0.00;0.00;;;;;;;;5016131;28;10454;-72
2021/01/12 11:12:59;;;;;;;;;0.00;0.00;;;;;;;;5021013;28;10293;-73
2021/01/12 11:15:27;;;;;;;;;0.00;0.00;;;;;;;;5015148;28;10311;-72
2021/01/12 11:17:54;;;;;;;;;0.00;0.00;;;;;;;;5020187;28;10518;-72
2021/01/12 11:20:21;;;;;;;;;0.00;0.00;;;;;;;;5020772;28;10501;-72
2021/01/12 11:22:49;;;;;;;;;2.50;1.00;;;;;;;;5011812;28;10411;-73
2021/01/12 11:25:16;;;;;;;;;0.00;0.00;;;;;;;;5022185;28;10545;-72
2021/01/12 11:27:43;;;;;;;;;0.00;0.00;;;;;;;;5023699;28;10397;-72
2021/01/12 11:30:12;;;;;;;;;0.00;0.00;;;;;;;;5022056;28;10333;-73
2021/01/12 11:32:42;;;;;;;;;0.00;0.00;;;;;;;;5021450;28;10229;-72
2021/01/12 11:35:10;;;;;;;;;0.00;0.00;;;;;;;;5017907;28;10314;-72
2021/01/12 11:37:37;;;;;;;;;0.00;0.00;;;;;;;;5018202;28;10306;-73
2021/01/12 11:40:09;;;;;;;;;0.00;0.00;;;;;;;;5005002;28;10259;-72
2021/01/12 11:42:36;;;;;;;;;0.00;0.00;;;;;;;;5010775;28;10260;-74
2021/01/12 11:45:03;;;;;;;;;0.00;0.00;;;;;;;;5010807;28;10183;-72
2021/01/12 11:47:30;;;;;;;;;0.00;0.00;;;;;;;;5010821;28;10279;-71
2021/01/12 11:49:57;;;;;;;;;0.50;0.00;;;;;;;;5017618;28;10272;-71
2021/01/12 11:52:24;;;;;;;;;0.00;0.00;;;;;;;;5020204;28;10370;-70
2021/01/12 11:54:51;;;;;;;;;0.25;0.00;;;;;;;;5016130;28;10308;-73
2021/01/12 11:57:18;;;;;;;;;1.00;0.00;;;;;;;;5022540;28;10322;-71
2021/01/12 11:59:45;;;;;;;;;0.00;0.00;;;;;;;;5021128;28;10343;-71
2021/01/12 12:02:12;;;;;;;;;0.00;0.00;;;;;;;;5013273;28;10263;-71
2021/01/12 12:04:39;;;;;;;;;0.00;0.00;;;;;;;;5026209;28;10302;-71
2021/01/12 12:07:06;;;;;;;;;0.00;0.00;;;;;;;;5018676;28;10253;-71
2021/01/12 12:09:34;;;;;;;;;0.00;0.00;;;;;;;;5018327;28;10270;-71
2021/01/12 12:12:02;;;;;;;;;0.00;0.00;;;;;;;;5013793;28;10152;-71
2021/01/12 12:14:30;;;;;;;;;0.00;0.00;;;;;;;;5014534;28;10234;-71
2021/01/12 12:16:57;;;;;;;;;0.00;0.00;;;;;;;;5018648;28;10261;-71
2021/01/12 12:19:26;;;;;;;;;0.00;0.00;;;;;;;;5022616;28;10245;-71
2021/01/12 12:21:54;;;;;;;;;0.00;0.00;;;;;;;;5026043;28;10309;-70
2021/01/12 12:24:22;;;;;;;;;0.00;0.00;;;;;;;;5021853;28;11441;-71
2021/01/12 12:26:50;;;;;;;;;0.00;0.00;;;;;;;;5025115;28;10220;-71
2021/01/12 12:29:17;;;;;;;;;0.00;0.00;;;;;;;;5019829;28;10172;-72
2021/01/12 12:31:47;;;;;;;;;0.00;0.00;;;;;;;;5013835;28;10197;-72
2021/01/12 12:34:15;;;;;;;;;0.00;0.00;;;;;;;;5016289;28;10263;-71
2021/01/12 12:36:42;;;;;;;;;0.00;0.00;;;;;;;;5025976;28;10281;-72
2021/01/12 12:39:08;;;;;;;;;0.00;0.00;;;;;;;;5015317;28;10311;-73
2021/01/12 12:41:36;;;;;;;;;0.00;0.00;;;;;;;;5015450;28;10326;-72
2021/01/12 12:44:03;;;;;;;;;0.75;0.00;;;;;;;;5018062;28;10237;-72
2021/01/12 12:46:30;;;;;;;;;0.00;0.00;;;;;;;;5017912;28;10296;-72
2021/01/12 12:48:58;;;;;;;;;0.00;0.00;;;;;;;;5016881;28;10664;-73
2021/01/12 12:51:26;;;;;;;;;0.00;0.00;;;;;;;;5017271;28;10869;-72
2021/01/12 12:53:55;;;;;;;;;0.00;0.00;;;;;;;;5018223;28;11024;-73
2021/01/12 12:56:22;;;;;;;;;0.00;0.00;;;;;;;;5023921;28;10084;-71
2021/01/12 12:58:49;;;;;;;;;0.00;0.00;;;;;;;;5011873;28;10089;-72
2021/01/12 13:01:16;;;;;;;;;0.00;0.00;;;;;;;;5024641;28;10161;-71
2021/01/12 13:03:44;;;;;;;;;0.00;0.00;;;;;;;;5021991;28;10181;-72
2021/01/12 13:06:13;;;;;;;;;0.00;0.00;;;;;;;;5025191;28;10160;-72
2021/01/12 13:08:41;;;;;;;;;0.00;0.00;;;;;;;;5021559;28;10083;-72
2021/01/12 13:11:08;;;;;;;;;0.00;0.00;;;;;;;;5022520;28;10188;-72
2021/01/12 13:13:36;;;;;;;;;0.00;0.00;;;;;;;;5015112;28;10229;-72
2021/01/12 13:16:04;;;;;;;;;0.50;0.00;;;;;;;;5023901;28;10867;-72
2021/01/12 13:18:38;;;;;;;;;0.00;0.00;;;;;;;;5013674;28;10051;-73
2021/01/12 13:21:05;;;;;;;;;0.00;0.00;;;;;;;;5010296;28;10325;-73
2021/01/12 13:23:34;;;;;;;;;0.00;0.00;;;;;;;;5012801;28;10181;-72
2021/01/12 13:26:01;;;;;;;;;0.00;0.00;;;;;;;;5008041;28;11035;-72
2021/01/12 13:28:28;;;;;;;;;0.00;0.00;;;;;;;;5016066;28;10337;-71
2021/01/12 13:30:55;;;;;;;;;0.00;0.00;;;;;;;;5017699;28;10732;-71
2021/01/12 13:33:22;;;;;;;;;0.00;0.00;;;;;;;;5010846;28;10235;-72
2021/01/12 13:35:49;;;;;;;;;0.75;0.00;;;;;;;;5009554;28;10173;-72
2021/01/12 13:38:16;;;;;;;;;1.00;0.00;;;;;;;;5016662;28;10267;-71
2021/01/12 13:40:43;;;;;;;;;0.25;0.00;;;;;;;;5013025;28;11036;-71
2021/01/12 13:43:10;;;;;;;;;0.00;0.00;;;;;;;;5011569;28;10177;-73
2021/01/12 13:45:37;;;;;;;;;1.00;0.00;;;;;;;;5015046;28;10166;-71
2021/01/12 13:48:06;;;;;;;;;0.00;0.00;;;;;;;;5012966;28;10233;-72
2021/01/12 13:50:34;;;;;;;;;16.00;14.75;;;;;;;;5019569;28;10315;-72
2021/01/12 13:53:02;;;;;;;;;15.00;12.75;;;;;;;;5015752;28;11064;-72
2021/01/12 13:55:30;;;;;;;;;25.00;19.75;;;;;;;;5004023;28;10817;-72
2021/01/12 13:58:04;;;;;;;;;10.75;10.75;;;;;;;;5013597;28;11050;-73
2021/01/12 14:00:32;;;;;;;;;12.00;6.25;;;;;;;;5011078;28;10612;-72
2021/01/12 14:02:59;;;;;;;;;4.00;4.00;;;;;;;;5014655;28;10598;-72
2021/01/12 14:05:28;;;;;;;;;4.50;4.50;;;;;;;;5009378;28;10584;-71
2021/01/12 14:07:55;;;;;;;;;21.00;21.00;;;;;;;;5019427;28;10502;-72
2021/01/12 14:10:23;;;;;;;;;8.00;8.00;;;;;;;;5016722;28;11177;-72
2021/01/12 14:12:50;;;;;;;;;10.75;8.00;;;;;;;;5011614;28;10770;-72
2021/01/12 14:15:19;;;;;;;;;3.00;3.00;;;;;;;;5014429;28;10614;-72
2021/01/12 14:17:51;;;;;;;;;16.00;16.00;;;;;;;;5022945;28;11302;-71
2021/01/12 14:20:19;;;;;;;;;9.50;7.00;;;;;;;;5016479;28;10916;-72
2021/01/12 14:22:51;;;;;;;;;2.25;2.25;;;;;;;;5011788;28;10538;-72
2021/01/12 14:25:18;;;;;;;;;8.50;8.50;;;;;;;;5023517;28;10311;-72
2021/01/12 14:27:46;;;;;;;;;7.00;7.00;;;;;;;;5021887;28;10799;-72
2021/01/12 14:30:14;;;;;;;;;7.50;6.00;;;;;;;;5015381;28;10766;-72
2021/01/12 14:32:43;;;;;;;;;1.00;1.00;;;;;;;;5024486;28;10476;-72
2021/01/12 14:35:10;;;;;;;;;1.00;1.00;;;;;;;;5022352;28;10234;-72
2021/01/12 14:37:39;;;;;;;;;0.00;0.00;;;;;;;;5013603;28;10275;-74